Time;durP1;ratioP1;P1;durP2;ratioP2;P2;SDS_P1;SDS_P2;PMS_P1;PMS_P2;Temp;Humidity;BMP_temperature;BMP_pressure;BME280_temperature;BME280_humidity;BME280_pressure;Samples;Min_cycle;Max_cycle;Signal;HPM_P1;HPM_P2
2020/12/22 00:00:30;;;;;;;6.63;4.60;;;;;;;7.15;92.37;99130.56;5036536;28;20050;-80
2020/12/22 00:02:59;;;;;;;10.75;5.35;;;;;;;7.22;92.47;99130.72;5052664;28;20048;-80
2020/12/22 00:05:28;;;;;;;9.23;5.40;;;;;;;7.22;92.46;99126.16;5053379;28;20071;-81
2020/12/22 00:21:35;;;;;;;7.60;4.07;;;;;;;7.31;92.91;99099.16;5045884;28;20091;-80
2020/12/22 00:24:03;;;;;;;6.03;3.83;;;;;;;7.38;92.50;99095.63;5038304;28;20048;-80
2020/12/22 00:26:30;;;;;;;6.63;4.03;;;;;;;7.39;92.59;99089.22;5047963;28;20045;-80
2020/12/22 00:28:56;;;;;;;6.15;3.63;;;;;;;7.26;92.45;99065.34;5053730;28;20049;-80
2020/12/22 00:31:22;;;;;;;10.25;4.03;;;;;;;7.40;92.59;99090.03;5052740;28;20636;-80
2020/12/22 00:48:08;;;;;;;7.85;3.65;;;;;;;7.57;93.34;99089.06;5054791;28;20052;-80
2020/12/22 00:50:38;;;;;;;5.50;3.78;;;;;;;7.51;92.93;99076.22;5034892;28;20099;-81
2020/12/22 00:53:41;;;;;;;3.40;2.63;;;;;;;7.63;93.29;99084.81;5041296;28;20091;-80
2020/12/22 00:56:11;;;;;;;8.32;2.90;;;;;;;7.59;93.47;99083.50;5049495;28;20052;-80
2020/12/22 00:58:37;;;;;;;5.07;2.38;;;;;;;7.63;93.22;99082.13;5044882;28;20045;-80
2020/12/22 01:01:03;;;;;;;5.82;2.90;;;;;;;7.68;93.42;99082.47;5042611;28;20049;-80
2020/12/22 01:03:31;;;;;;;5.47;2.88;;;;;;;7.73;93.23;99084.66;5057153;28;20420;-80
2020/12/22 01:05:58;;;;;;;3.80;2.38;;;;;;;7.80;93.26;99096.53;5060113;28;20132;-80
2020/12/22 01:08:25;;;;;;;4.32;2.38;;;;;;;7.71;93.26;99081.31;5052317;28;20443;-80
2020/12/22 01:10:51;;;;;;;5.78;2.42;;;;;;;7.70;93.39;99085.00;5040178;28;20091;-80
2020/12/22 01:13:17;;;;;;;4.25;2.80;;;;;;;7.68;93.25;99079.78;5039981;28;20087;-80
2020/12/22 01:29:17;;;;;;;4.50;2.10;;;;;;;7.95;93.11;99092.13;5052308;28;20036;-80
2020/12/22 01:31:46;;;;;;;2.03;1.63;;;;;;;7.87;92.82;99091.25;5051361;28;20107;-81
2020/12/22 01:34:13;;;;;;;2.22;1.95;;;;;;;8.03;93.05;99098.56;5050923;28;20047;-81
2020/12/22 01:36:42;;;;;;;2.20;1.50;;;;;;;7.95;92.89;99091.28;5051931;28;20048;-80
2020/12/22 01:39:09;;;;;;;2.08;1.30;;;;;;;8.05;92.56;99101.91;5043950;28;20037;-80
2020/12/22 01:41:36;;;;;;;2.10;1.45;;;;;;;8.16;92.55;99096.16;5039867;28;20052;-80
2020/12/22 01:44:07;;;;;;;2.75;1.83;;;;;;;8.10;92.82;99084.16;5051418;28;20045;-80
2020/12/22 01:46:36;;;;;;;1.92;1.45;;;;;;;8.11;92.20;99088.56;5051427;28;20049;-80
2020/12/22 01:49:07;;;;;;;2.08;1.40;;;;;;;8.15;92.49;99091.75;5051118;28;20132;-80
2020/12/22 01:51:34;;;;;;;1.77;1.25;;;;;;;8.18;92.73;99094.13;5041360;28;20048;-80
2020/12/22 01:54:01;;;;;;;1.98;1.10;;;;;;;8.27;91.88;99076.84;5051467;28;20049;-80
2020/12/22 01:56:27;;;;;;;2.50;1.30;;;;;;;8.27;92.33;99070.59;5049624;28;20245;-81
2020/12/22 01:58:54;;;;;;;1.38;1.23;;;;;;;8.37;91.85;99087.50;5051378;28;20053;-80
2020/12/22 02:01:20;;;;;;;2.08;1.08;;;;;;;8.34;92.11;99077.00;5050538;28;20041;-80
2020/12/22 02:03:47;;;;;;;1.55;1.40;;;;;;;8.36;92.00;99076.84;5051147;28;20453;-80
2020/12/22 02:06:13;;;;;;;1.10;1.00;;;;;;;8.31;92.09;99071.94;5042310;28;20053;-80
2020/12/22 02:08:40;;;;;;;1.20;0.95;;;;;;;8.42;92.23;99085.09;5051706;28;20048;-80
2020/12/22 02:11:06;;;;;;;2.88;1.00;;;;;;;8.43;91.69;99073.25;5051143;28;20456;-80
2020/12/22 02:13:32;;;;;;;0.73;0.73;;;;;;;8.36;91.96;99056.00;5050455;28;20384;-80
2020/12/22 02:15:58;;;;;;;1.10;0.90;;;;;;;8.31;92.13;99055.69;5046664;28;20075;-80
2020/12/22 02:18:25;;;;;;;1.17;0.75;;;;;;;8.45;91.80;99070.41;5048303;28;20124;-80
2020/12/22 02:20:52;;;;;;;1.67;0.63;;;;;;;8.58;91.59;99067.13;5042925;28;20045;-80
2020/12/22 02:23:20;;;;;;;0.82;0.57;;;;;;;8.59;90.95;99079.69;5051301;28;20049;-80
2020/12/22 02:25:48;;;;;;;0.70;0.63;;;;;;;8.61;90.99;99066.78;5040474;28;20041;-80
2020/12/22 02:28:16;;;;;;;0.70;0.70;;;;;;;8.64;91.05;99058.31;5045694;28;20466;-80
2020/12/22 02:30:43;;;;;;;3.40;1.00;;;;;;;8.69;90.61;99050.50;5051354;28;20663;-80
2020/12/22 02:33:09;;;;;;;0.98;0.70;;;;;;;8.78;90.46;99060.28;5048263;28;20060;-80
2020/12/22 02:35:35;;;;;;;3.42;0.80;;;;;;;8.75;90.27;99040.84;5051049;28;20056;-80
2020/12/22 02:38:01;;;;;;;0.75;0.60;;;;;;;8.80;89.96;99047.41;5050302;28;20057;-80
2020/12/22 02:40:29;;;;;;;0.85;0.63;;;;;;;8.79;90.44;99063.84;5030107;28;20191;-80
2020/12/22 02:43:07;;;;;;;0.47;0.47;;;;;;;8.80;90.16;99049.28;5048153;28;20057;-80
2020/12/22 02:45:33;;;;;;;0.50;0.40;;;;;;;8.85;90.17;99053.16;5050805;28;20045;-79
2020/12/22 02:47:59;;;;;;;5.10;0.90;;;;;;;8.90;89.61;99055.34;5049322;28;20099;-79
2020/12/22 02:50:25;;;;;;;0.50;0.50;;;;;;;8.84;89.78;99046.03;5050400;28;20052;-79
2020/12/22 02:52:51;;;;;;;0.60;0.52;;;;;;;8.88;90.14;99048.38;5049323;28;20049;-79
2020/12/22 02:55:18;;;;;;;0.47;0.47;;;;;;;8.88;89.71;99035.66;5050002;28;20489;-79
2020/12/22 02:57:45;;;;;;;0.35;0.35;;;;;;;8.92;89.82;99049.72;5050912;28;20045;-79
2020/12/22 03:00:11;;;;;;;0.52;0.52;;;;;;;8.91;89.65;99053.47;5049715;28;20283;-79
2020/12/22 03:02:37;;;;;;;0.68;0.50;;;;;;;8.87;89.96;99042.13;5050176;28;20045;-79
2020/12/22 03:05:03;;;;;;;0.50;0.50;;;;;;;8.93;89.61;99048.72;5050310;28;20045;-79
2020/12/22 03:07:30;;;;;;;0.75;0.40;;;;;;;8.92;89.51;99044.31;5040881;28;20041;-79
2020/12/22 03:09:56;;;;;;;0.40;0.40;;;;;;;8.95;89.28;99039.38;5031312;28;20409;-79
2020/12/22 03:12:22;;;;;;;0.28;0.28;;;;;;;9.05;88.93;99052.72;5043834;28;20049;-79
2020/12/22 03:14:49;;;;;;;0.30;0.30;;;;;;;8.99;89.19;99031.75;5030813;28;20057;-79
2020/12/22 03:17:15;;;;;;;0.28;0.28;;;;;;;8.90;89.09;99022.81;5046673;28;20040;-79
2020/12/22 03:19:41;;;;;;;0.85;0.40;;;;;;;9.04;89.08;99038.28;5031908;28;20056;-79
2020/12/22 03:22:08;;;;;;;0.47;0.22;;;;;;;9.03;89.04;99046.59;5046248;28;20386;-79
2020/12/22 03:24:34;;;;;;;0.10;0.10;;;;;;;9.09;88.97;99040.47;5049883;28;20045;-79
2020/12/22 03:27:00;;;;;;;2.55;0.28;;;;;;;9.14;89.02;99035.38;5049361;28;20048;-79
2020/12/22 03:29:26;;;;;;;0.10;0.10;;;;;;;9.20;88.63;99047.38;5048818;28;20394;-79
2020/12/22 03:31:53;;;;;;;0.70;0.30;;;;;;;9.08;88.75;99022.53;5043011;28;20461;-79
2020/12/22 03:34:20;;;;;;;3.10;0.20;;;;;;;9.17;88.82;99026.88;5048189;28;20045;-79
2020/12/22 03:36:46;;;;;;;2.30;0.22;;;;;;;9.16;88.61;99008.91;5052146;28;20404;-79
2020/12/22 03:39:12;;;;;;;2.35;0.30;;;;;;;9.30;88.81;99036.28;5052766;28;20037;-79
2020/12/22 03:41:38;;;;;;;0.35;0.30;;;;;;;9.28;88.84;99028.31;5034856;28;20084;-79
2020/12/22 03:44:04;;;;;;;2.45;0.20;;;;;;;9.24;88.59;99024.28;5050885;28;20053;-79
2020/12/22 03:46:31;;;;;;;1.85;0.32;;;;;;;9.27;88.90;99039.34;5049000;28;20057;-79
2020/12/22 03:48:58;;;;;;;4.00;0.40;;;;;;;9.20;88.54;99041.97;5048817;28;20485;-79
2020/12/22 03:51:24;;;;;;;0.65;0.30;;;;;;;9.19;88.96;99045.69;5047817;28;20053;-79
2020/12/22 03:53:50;;;;;;;0.25;0.22;;;;;;;9.31;88.53;99062.41;5044995;28;20049;-79
2020/12/22 03:56:16;;;;;;;0.47;0.47;;;;;;;9.32;88.52;99067.66;5052879;28;20052;-79
2020/12/22 03:58:43;;;;;;;0.20;0.20;;;;;;;9.25;88.78;99071.25;5048177;28;20048;-79
2020/12/22 04:01:09;;;;;;;0.08;0.08;;;;;;;9.29;88.63;99072.56;5051307;28;20041;-79
2020/12/22 04:03:35;;;;;;;0.25;0.25;;;;;;;9.41;88.59;99063.00;5052229;28;20041;-79
2020/12/22 04:06:02;;;;;;;0.38;0.30;;;;;;;9.33;88.61;99061.19;5053955;28;20504;-79
2020/12/22 04:08:28;;;;;;;0.50;0.30;;;;;;;9.32;88.14;99064.94;5053269;28;20052;-79
2020/12/22 04:10:55;;;;;;;0.10;0.10;;;;;;;9.44;87.87;99062.66;5053839;28;20048;-79
2020/12/22 04:13:21;;;;;;;0.22;0.20;;;;;;;9.44;88.08;99068.09;5052265;28;20433;-79
2020/12/22 04:15:48;;;;;;;0.20;0.20;;;;;;;9.42;87.86;99061.97;5052951;28;20045;-79
2020/12/22 04:18:14;;;;;;;0.20;0.20;;;;;;;9.42;87.88;99066.56;5053137;28;20056;-79
2020/12/22 04:20:40;;;;;;;5.50;1.65;;;;;;;9.53;87.46;99075.13;5053558;28;20049;-79
2020/12/22 04:23:07;;;;;;;0.65;0.20;;;;;;;9.47;87.53;99056.00;5037101;28;20041;-79
2020/12/22 04:25:33;;;;;;;0.25;0.25;;;;;;;9.55;88.12;99067.66;5051468;28;20052;-79
2020/12/22 04:28:00;;;;;;;0.20;0.20;;;;;;;9.36;87.89;99044.56;5053449;28;20048;-79
2020/12/22 04:30:26;;;;;;;0.13;0.13;;;;;;;9.53;87.70;99075.13;5051472;28;20500;-79
2020/12/22 04:32:52;;;;;;;0.20;0.20;;;;;;;9.53;87.88;99080.56;5053061;28;20447;-79
2020/12/22 04:35:18;;;;;;;0.30;0.30;;;;;;;9.51;87.63;99069.03;5052740;28;20118;-79
2020/12/22 04:37:45;;;;;;;1.95;0.20;;;;;;;9.54;87.35;99062.41;5052502;28;20172;-79
2020/12/22 04:40:12;;;;;;;0.10;0.10;;;;;;;9.59;87.36;99075.44;5052698;28;20075;-79
2020/12/22 04:42:38;;;;;;;0.15;0.15;;;;;;;9.59;87.74;99072.72;5053016;28;20056;-79
2020/12/22 04:45:05;;;;;;;0.25;0.25;;;;;;;9.60;87.73;99071.69;5051408;28;20077;-79
2020/12/22 04:47:31;;;;;;;0.20;0.20;;;;;;;9.60;87.53;99080.66;5051054;28;20452;-79
2020/12/22 04:50:03;;;;;;;0.15;0.15;;;;;;;9.62;87.44;99078.63;5052080;28;20102;-78
2020/12/22 04:52:32;;;;;;;1.75;0.15;;;;;;;9.53;87.75;99063.44;5052617;28;20048;-81
2020/12/22 04:54:58;;;;;;;0.35;0.30;;;;;;;9.49;87.52;99062.13;5040762;28;20042;-79
2020/12/22 04:57:31;;;;;;;0.43;0.30;;;;;;;9.53;87.62;99067.00;5047306;28;20514;-80
2020/12/22 04:59:58;;;;;;;1.98;0.38;;;;;;;9.57;87.79;99062.91;5051963;28;20045;-80
2020/12/22 05:02:27;;;;;;;0.20;0.20;;;;;;;9.64;87.05;99067.59;5051840;28;20056;-79
2020/12/22 05:04:53;;;;;;;0.30;0.28;;;;;;;9.71;86.58;99069.41;5048983;28;20137;-80
2020/12/22 05:07:20;;;;;;;3.95;0.20;;;;;;;9.68;87.21;99067.06;5045115;28;20041;-79
2020/12/22 05:09:46;;;;;;;0.20;0.20;;;;;;;9.71;86.74;99055.84;5051285;28;20060;-80
2020/12/22 05:12:12;;;;;;;1.92;0.30;;;;;;;9.76;86.96;99068.03;5051434;28;20053;-80
2020/12/22 05:14:41;;;;;;;0.90;0.60;;;;;;;9.64;86.72;99054.88;5051262;28;20053;-80
2020/12/22 05:17:13;;;;;;;0.20;0.20;;;;;;;9.76;85.78;99046.31;5051560;28;20048;-82
2020/12/22 05:19:41;;;;;;;3.42;0.40;;;;;;;9.84;85.98;99062.50;5054203;28;20045;-80
2020/12/22 05:22:08;;;;;;;0.30;0.20;;;;;;;9.86;86.03;99064.03;5053862;28;20049;-80
2020/12/22 05:24:35;;;;;;;0.93;0.40;;;;;;;9.87;86.08;99075.72;5054119;28;20045;-81
2020/12/22 05:27:01;;;;;;;0.95;0.35;;;;;;;9.84;86.65;99070.66;5034487;28;20128;-80
2020/12/22 05:29:28;;;;;;;0.20;0.20;;;;;;;9.77;86.26;99051.56;5034385;28;20046;-80
2020/12/22 05:31:55;;;;;;;0.20;0.20;;;;;;;9.82;86.23;99056.44;5047058;28;20056;-81
2020/12/22 05:34:24;;;;;;;0.57;0.30;;;;;;;10.07;85.39;99076.91;5054217;28;20054;-80
2020/12/22 05:36:50;;;;;;;0.28;0.28;;;;;;;10.09;85.60;99074.00;5054170;28;20067;-80
2020/12/22 05:39:18;;;;;;;1.48;0.20;;;;;;;10.05;85.42;99067.25;5054566;28;20057;-80
2020/12/22 05:41:45;;;;;;;0.95;0.20;;;;;;;10.09;85.46;99079.44;5053938;28;20044;-79
2020/12/22 05:44:11;;;;;;;0.90;0.20;;;;;;;10.13;85.37;99078.03;5053707;28;20051;-79
2020/12/22 05:46:39;;;;;;;0.28;0.20;;;;;;;10.11;85.41;99085.53;5052982;28;20048;-79
2020/12/22 05:49:07;;;;;;;0.20;0.10;;;;;;;10.10;85.58;99089.25;5053754;28;20056;-80
2020/12/22 05:51:34;;;;;;;1.45;0.20;;;;;;;10.04;86.08;99077.28;5054093;28;20052;-79
2020/12/22 05:54:04;;;;;;;1.45;0.30;;;;;;;10.02;85.77;99089.34;5053915;28;20045;-80
2020/12/22 05:56:31;;;;;;;0.30;0.30;;;;;;;10.02;86.08;99081.19;5053835;28;20047;-83
2020/12/22 05:58:57;;;;;;;1.65;0.40;;;;;;;9.96;86.14;99076.50;5047411;28;20055;-80
2020/12/22 06:01:32;;;;;;;0.08;0.08;;;;;;;10.04;86.36;99090.00;5046356;28;20088;-81
2020/12/22 06:04:05;;;;;;;0.20;0.20;;;;;;;9.96;86.15;99073.78;5035228;28;20046;-81
2020/12/22 06:06:33;;;;;;;1.42;0.20;;;;;;;10.02;85.95;99095.59;5033879;28;20049;-80
2020/12/22 06:08:59;;;;;;;0.20;0.20;;;;;;;9.90;86.17;99091.66;5047292;28;20048;-80
2020/12/22 06:11:28;;;;;;;1.48;0.30;;;;;;;9.95;86.90;99088.38;5053572;28;20045;-81
2020/12/22 06:13:57;;;;;;;0.68;0.50;;;;;;;9.89;87.00;99079.94;5053879;28;20049;-80
2020/12/22 06:16:23;;;;;;;0.15;0.10;;;;;;;9.96;86.45;99095.50;5053343;28;20048;-80
2020/12/22 06:18:51;;;;;;;0.65;0.35;;;;;;;10.00;86.60;99094.13;5051872;28;20079;-80
2020/12/22 06:21:18;;;;;;;3.88;0.65;;;;;;;10.01;86.51;99093.94;5053184;28;20504;-80
2020/12/22 06:23:46;;;;;;;0.32;0.30;;;;;;;9.94;86.14;99078.56;5053135;28;20519;-80
2020/12/22 06:26:12;;;;;;;0.20;0.20;;;;;;;9.99;86.45;99081.56;5049439;28;20168;-80
2020/12/22 06:28:39;;;;;;;1.25;0.60;;;;;;;10.00;86.33;99094.97;5044960;28;20060;-80
2020/12/22 06:31:22;;;;;;;0.50;0.50;;;;;;;10.05;86.37;99094.41;5053041;28;20057;-79
2020/12/22 06:33:49;;;;;;;1.08;0.57;;;;;;;10.04;86.42;99095.44;5051571;28;20048;-79
2020/12/22 06:36:17;;;;;;;0.52;0.52;;;;;;;10.00;86.02;99066.97;5052633;28;20052;-80
2020/12/22 06:38:50;;;;;;;0.50;0.50;;;;;;;10.13;85.90;99094.31;5052830;28;20059;-79
2020/12/22 06:41:49;;;;;;;1.38;0.43;;;;;;;10.16;85.77;99093.97;5039083;28;20515;-80
2020/12/22 06:44:25;;;;;;;1.88;0.60;;;;;;;10.22;85.79;99081.50;5032528;28;20493;-79
2020/12/22 06:46:52;;;;;;;0.38;0.35;;;;;;;10.24;85.80;99087.63;5033034;28;20081;-79
2020/12/22 06:49:37;;;;;;;7.13;0.60;;;;;;;10.25;85.60;99084.72;5058798;28;20173;-79
2020/12/22 06:52:27;;;;;;;0.20;0.20;;;;;;;10.35;85.98;99086.34;5072059;28;20102;-79
2020/12/22 06:54:54;;;;;;;1.98;0.55;;;;;;;10.32;86.87;99097.56;5065176;28;20060;-80
2020/12/22 06:57:40;;;;;;;0.28;0.28;;;;;;;10.21;88.01;99096.97;5052591;28;20060;-79
2020/12/22 07:00:08;;;;;;;0.57;0.32;;;;;;;10.08;88.69;99080.47;5052193;28;20485;-79
2020/12/22 07:02:36;;;;;;;0.20;0.20;;;;;;;10.09;88.86;99093.84;5052438;28;20045;-80
2020/12/22 07:05:04;;;;;;;0.47;0.25;;;;;;;10.10;88.34;99095.56;5052920;28;20045;-80
2020/12/22 07:07:55;;;;;;;0.25;0.25;;;;;;;10.11;88.51;99104.53;5052461;28;20045;-80
2020/12/22 07:10:22;;;;;;;3.03;0.93;;;;;;;9.94;88.87;99092.16;5038109;28;20049;-80
2020/12/22 07:12:50;;;;;;;1.40;1.00;;;;;;;9.94;88.83;99078.56;5036935;28;20072;-80
2020/12/22 07:15:19;;;;;;;2.25;1.15;;;;;;;9.98;88.90;99088.88;5036784;28;20052;-81
2020/12/22 07:17:45;;;;;;;0.80;0.50;;;;;;;10.01;89.23;99103.94;5040260;28;20049;-81
2020/12/22 07:20:12;;;;;;;0.50;0.50;;;;;;;9.99;89.07;99103.28;5054218;28;20044;-81
2020/12/22 07:22:38;;;;;;;1.02;0.40;;;;;;;10.10;89.25;99113.69;5054265;28;20103;-80
2020/12/22 07:25:05;;;;;;;0.70;0.70;;;;;;;10.04;89.62;99109.88;5054518;28;20053;-80
2020/12/22 07:27:33;;;;;;;8.82;3.25;;;;;;;10.07;89.54;99114.94;5054844;28;20044;-81
2020/12/22 07:29:59;;;;;;;12.77;4.63;;;;;;;10.08;89.49;99115.78;5054476;28;20114;-80
2020/12/22 07:32:26;;;;;;;5.65;2.03;;;;;;;10.06;89.90;99115.97;5054525;28;20049;-80
2020/12/22 07:34:52;;;;;;;0.60;0.60;;;;;;;10.05;89.74;99116.13;5053937;28;20238;-80
2020/12/22 07:37:18;;;;;;;0.65;0.50;;;;;;;10.09;89.56;99125.63;5054427;28;20049;-80
2020/12/22 07:39:45;;;;;;;0.75;0.60;;;;;;;10.06;89.59;99120.56;5054235;28;20091;-80
2020/12/22 07:42:12;;;;;;;1.58;0.50;;;;;;;10.13;89.58;99136.94;5054892;28;20118;-80
2020/12/22 07:44:40;;;;;;;2.00;0.50;;;;;;;10.12;90.11;99137.97;5054161;28;20459;-81
2020/12/22 07:47:08;;;;;;;3.20;0.60;;;;;;;10.04;89.63;99115.31;5054090;28;20045;-81
2020/12/22 07:49:34;;;;;;;0.75;0.65;;;;;;;10.13;89.91;99140.50;5054140;28;20102;-80
2020/12/22 07:52:00;;;;;;;0.60;0.40;;;;;;;9.96;90.10;99111.81;5053738;28;20041;-81
2020/12/22 07:54:27;;;;;;;0.60;0.50;;;;;;;10.11;90.56;99131.69;5054138;28;20421;-81
2020/12/22 07:56:58;;;;;;;0.93;0.57;;;;;;;10.06;90.69;99137.69;5053920;28;20103;-81
2020/12/22 07:59:25;;;;;;;0.75;0.68;;;;;;;10.03;91.17;99138.06;5054224;28;20053;-81
2020/12/22 08:01:52;;;;;;;1.67;0.80;;;;;;;10.02;91.01;99141.78;5053511;28;20473;-81
2020/12/22 08:04:21;;;;;;;0.50;0.50;;;;;;;10.05;91.23;99151.44;5053847;28;20071;-81
2020/12/22 08:06:56;;;;;;;0.45;0.38;;;;;;;9.95;91.14;99123.69;5053999;28;20067;-81
2020/12/22 08:09:28;;;;;;;1.35;0.50;;;;;;;10.08;91.29;99145.66;5053650;28;20067;-80
2020/12/22 08:11:56;;;;;;;0.50;0.30;;;;;;;10.09;91.24;99161.75;5053959;28;20060;-81
2020/12/22 08:14:24;;;;;;;0.68;0.43;;;;;;;10.07;91.47;99166.53;5053207;28;20295;-81
2020/12/22 08:16:55;;;;;;;1.10;0.80;;;;;;;10.08;91.67;99168.22;5053717;28;20049;-81
2020/12/22 08:19:22;;;;;;;1.10;0.77;;;;;;;10.05;91.77;99160.44;5053695;28;20044;-80
2020/12/22 08:21:54;;;;;;;3.28;0.52;;;;;;;10.06;91.48;99161.28;5053425;28;20045;-81
2020/12/22 08:24:21;;;;;;;2.40;0.60;;;;;;;10.06;91.80;99164.84;5053066;28;20045;-81
2020/12/22 08:26:49;;;;;;;0.50;0.50;;;;;;;9.96;91.71;99147.94;5053753;28;20509;-81
2020/12/22 08:29:17;;;;;;;1.27;0.93;;;;;;;10.01;91.89;99155.53;5053811;28;20067;-80
2020/12/22 08:31:45;;;;;;;2.25;0.82;;;;;;;10.12;92.04;99167.84;5053776;28;20056;-81
2020/12/22 08:34:15;;;;;;;1.40;0.80;;;;;;;10.09;91.52;99169.91;5053695;28;20471;-81
2020/12/22 08:36:42;;;;;;;1.42;0.70;;;;;;;10.11;91.52;99175.16;5054060;28;20106;-80
2020/12/22 08:39:15;;;;;;;2.33;0.70;;;;;;;10.03;91.64;99169.81;5053842;28;20440;-81
2020/12/22 08:41:42;;;;;;;1.23;0.75;;;;;;;9.96;91.75;99166.94;5053611;28;20044;-81
2020/12/22 08:44:10;;;;;;;3.08;0.60;;;;;;;10.09;91.78;99186.22;5053152;28;20053;-81
2020/12/22 08:46:37;;;;;;;0.50;0.50;;;;;;;10.18;91.65;99187.00;5053388;28;20051;-81
2020/12/22 08:49:08;;;;;;;0.82;0.60;;;;;;;10.24;91.52;99180.84;5053080;28;20107;-81
2020/12/22 08:51:35;;;;;;;1.20;0.57;;;;;;;10.26;91.66;99197.78;5054260;28;20056;-81
2020/12/22 08:54:03;;;;;;;1.05;0.70;;;;;;;10.23;91.95;99192.72;5052959;28;20045;-81
2020/12/22 08:56:29;;;;;;;1.63;0.55;;;;;;;10.23;92.00;99195.44;5053414;28;20052;-81
2020/12/22 08:58:58;;;;;;;1.00;0.47;;;;;;;10.18;91.93;99191.59;5053060;28;20049;-81
2020/12/22 09:01:26;;;;;;;0.75;0.52;;;;;;;10.23;91.84;99200.88;5053057;28;20049;-81
2020/12/22 09:04:00;;;;;;;0.38;0.38;;;;;;;10.27;91.51;99199.50;5053280;28;20056;-80
2020/12/22 09:06:42;;;;;;;2.47;0.50;;;;;;;10.27;91.34;99187.78;5052713;28;20129;-81
2020/12/22 09:09:10;;;;;;;0.52;0.40;;;;;;;10.43;90.71;99197.69;5052985;28;20048;-81
2020/12/22 09:11:37;;;;;;;2.20;0.68;;;;;;;10.42;90.81;99185.16;5053146;28;20052;-81
2020/12/22 09:14:05;;;;;;;2.83;0.55;;;;;;;10.47;89.91;99196.28;5053337;28;20110;-81
2020/12/22 09:16:59;;;;;;;0.70;0.60;;;;;;;10.53;89.96;99200.16;5052651;28;20053;-81
2020/12/22 09:19:29;;;;;;;1.17;0.50;;;;;;;10.58;90.16;99209.47;5028495;28;20048;-81
2020/12/22 09:22:01;;;;;;;0.38;0.38;;;;;;;10.58;89.39;99208.59;5052326;28;20044;-80
2020/12/22 09:24:27;;;;;;;1.35;0.95;;;;;;;10.58;88.47;99198.59;5052446;28;20127;-81
2020/12/22 09:26:59;;;;;;;4.38;1.73;;;;;;;10.75;89.19;99203.88;5052216;28;20044;-81
2020/12/22 09:29:26;;;;;;;1.25;0.88;;;;;;;10.75;88.24;99214.75;5052998;28;20114;-81
2020/12/22 09:31:53;;;;;;;0.77;0.55;;;;;;;10.63;88.34;99190.72;5052714;28;20489;-81
2020/12/22 09:34:20;;;;;;;0.65;0.40;;;;;;;10.79;87.70;99214.19;5051977;28;20114;-81
2020/12/22 09:36:53;;;;;;;0.65;0.30;;;;;;;10.77;87.23;99207.25;5052296;28;20045;-81
2020/12/22 09:39:21;;;;;;;0.52;0.40;;;;;;;10.80;87.42;99218.59;5052413;28;20049;-81
2020/12/22 09:41:48;;;;;;;1.80;0.70;;;;;;;10.85;87.68;99226.19;5052244;28;20048;-81
2020/12/22 09:44:14;;;;;;;1.20;0.40;;;;;;;10.83;87.73;99225.53;5052167;28;20417;-81
2020/12/22 09:46:40;;;;;;;1.23;0.43;;;;;;;10.83;87.78;99225.53;5052586;28;20049;-81
2020/12/22 09:49:07;;;;;;;1.25;0.55;;;;;;;10.77;88.28;99221.66;5051881;28;20053;-81
2020/12/22 09:51:33;;;;;;;2.65;0.77;;;;;;;10.79;88.36;99221.50;5052380;28;20052;-81
2020/12/22 09:54:00;;;;;;;2.80;0.65;;;;;;;10.75;89.24;99222.91;5051985;28;20044;-81
2020/12/22 09:56:27;;;;;;;1.58;0.70;;;;;;;10.72;88.55;99218.69;5052125;28;20044;-81
2020/12/22 09:58:53;;;;;;;2.22;1.10;;;;;;;10.77;88.63;99240.72;5052119;28;20056;-81
2020/12/22 10:01:23;;;;;;;2.70;0.90;;;;;;;10.62;89.30;99218.09;5051957;28;20044;-81
2020/12/22 10:03:50;;;;;;;;;;;;;;;10.75;89.41;99239.22;5052355;28;20045;-79
2020/12/22 10:06:17;;;;;;;0.70;0.60;;;;;;;10.69;89.84;99235.34;5050759;28;19921;-81
2020/12/22 10:08:44;;;;;;;1.65;0.90;;;;;;;10.61;89.74;99219.97;5051403;28;20056;-81
2020/12/22 10:11:10;;;;;;;1.48;0.93;;;;;;;10.74;89.41;99245.69;5051268;28;20095;-80
2020/12/22 10:13:40;;;;;;;3.08;1.13;;;;;;;10.72;89.25;99237.72;5051714;28;20400;-81
2020/12/22 10:16:10;;;;;;;2.78;1.00;;;;;;;10.73;89.72;99239.38;5051452;28;20072;-80
2020/12/22 10:18:37;;;;;;;0.60;0.52;;;;;;;10.78;89.89;99242.41;5050533;28;20044;-81
2020/12/22 10:21:04;;;;;;;3.45;0.70;;;;;;;10.76;89.42;99233.59;5051520;28;20071;-81
2020/12/22 10:23:32;;;;;;;1.33;0.82;;;;;;;10.80;90.15;99229.47;5051438;28;20079;-81
2020/12/22 10:25:58;;;;;;;2.20;0.88;;;;;;;10.66;89.24;99207.69;5051089;28;20048;-81
2020/12/22 10:28:24;;;;;;;0.60;0.57;;;;;;;10.78;89.29;99236.13;5051727;28;20055;-81
2020/12/22 10:30:52;;;;;;;2.45;1.00;;;;;;;10.78;89.87;99225.25;5051436;28;20428;-81
2020/12/22 10:33:18;;;;;;;1.52;0.60;;;;;;;10.83;89.36;99221.97;5050868;28;20472;-81
2020/12/22 10:35:45;;;;;;;0.60;0.60;;;;;;;10.81;89.55;99233.03;5051113;28;20057;-81
2020/12/22 10:38:12;;;;;;;0.82;0.65;;;;;;;10.83;89.29;99225.53;5051003;28;20080;-81
2020/12/22 10:40:38;;;;;;;1.40;0.50;;;;;;;10.92;89.18;99220.88;5051550;28;20049;-81
2020/12/22 10:43:05;;;;;;;2.60;0.50;;;;;;;10.88;88.91;99222.25;5051298;28;20068;-81
2020/12/22 10:45:31;;;;;;;1.08;0.63;;;;;;;10.87;88.75;99226.88;5050092;28;21426;-81
2020/12/22 10:47:58;;;;;;;1.67;0.60;;;;;;;10.86;88.24;99217.00;5050879;28;20049;-81
2020/12/22 10:50:24;;;;;;;2.25;0.50;;;;;;;10.95;88.55;99221.31;5051113;28;20045;-81
2020/12/22 10:52:51;;;;;;;4.65;0.65;;;;;;;10.90;88.13;99217.47;5051011;28;20045;-80
2020/12/22 10:55:17;;;;;;;1.00;0.70;;;;;;;10.83;88.60;99198.34;5051470;28;20064;-81
2020/12/22 10:57:43;;;;;;;0.47;0.40;;;;;;;10.94;88.15;99225.09;5050935;28;20044;-82
2020/12/22 11:00:09;;;;;;;1.73;0.70;;;;;;;10.93;88.60;99228.84;5050698;28;20052;-81
2020/12/22 11:02:36;;;;;;;1.70;0.47;;;;;;;10.76;88.48;99217.28;5051029;28;20057;-81
2020/12/22 11:05:04;;;;;;;1.00;0.60;;;;;;;10.90;88.19;99231.94;5050508;28;20060;-81
2020/12/22 11:07:35;;;;;;;2.90;0.57;;;;;;;10.86;88.64;99219.72;5050768;28;20103;-81
2020/12/22 11:10:01;;;;;;;0.82;0.73;;;;;;;10.93;88.49;99226.13;5049167;28;20114;-82
2020/12/22 11:12:28;;;;;;;0.52;0.52;;;;;;;10.95;87.86;99226.75;5051471;28;20052;-81
2020/12/22 11:14:54;;;;;;;1.73;0.25;;;;;;;10.84;87.95;99204.63;5050439;28;20140;-81
2020/12/22 11:17:20;;;;;;;0.68;0.50;;;;;;;10.98;88.29;99229.13;5050728;28;20051;-81
2020/12/22 11:19:46;;;;;;;2.13;0.70;;;;;;;11.00;87.98;99228.09;5050558;28;20099;-81
2020/12/22 11:22:14;;;;;;;0.70;0.60;;;;;;;11.02;88.09;99213.28;5050769;28;20041;-81
2020/12/22 11:24:40;;;;;;;0.82;0.60;;;;;;;10.94;87.61;99219.66;5050928;28;20084;-81
2020/12/22 11:27:06;;;;;;;0.82;0.73;;;;;;;11.02;87.54;99213.28;5050638;28;20056;-81
2020/12/22 11:29:32;;;;;;;1.77;0.95;;;;;;;11.09;87.14;99218.81;5050452;28;20049;-81
2020/12/22 11:31:59;;;;;;;2.38;0.57;;;;;;;11.12;86.64;99213.81;5050232;28;20041;-81
2020/12/22 11:34:25;;;;;;;1.73;0.55;;;;;;;11.20;86.57;99223.78;5050488;28;20428;-81
2020/12/22 11:36:52;;;;;;;0.60;0.60;;;;;;;11.20;86.76;99226.50;5050361;28;20045;-81
2020/12/22 11:39:19;;;;;;;1.02;0.50;;;;;;;11.18;86.46;99216.84;5050673;28;20489;-81
2020/12/22 11:41:46;;;;;;;2.55;1.00;;;;;;;11.25;86.48;99218.63;5050294;28;20049;-81
2020/12/22 11:44:12;;;;;;;0.50;0.50;;;;;;;11.20;86.27;99222.94;5050127;28;20049;-81
2020/12/22 11:46:42;;;;;;;1.33;0.40;;;;;;;11.27;87.00;99222.00;5050723;28;20049;-81
2020/12/22 11:49:08;;;;;;;1.25;0.43;;;;;;;11.22;87.20;99207.28;5050297;28;20492;-81
2020/12/22 11:51:34;;;;;;;2.90;0.60;;;;;;;11.28;86.81;99236.47;5050628;28;20068;-82
2020/12/22 11:54:00;;;;;;;1.77;0.73;;;;;;;11.19;87.57;99210.38;5050427;28;20130;-81
2020/12/22 11:56:27;;;;;;;1.48;0.70;;;;;;;11.28;87.92;99215.53;5050598;28;20045;-81
2020/12/22 11:58:54;;;;;;;1.27;0.60;;;;;;;11.34;87.01;99224.81;5053989;28;20063;-81
2020/12/22 12:01:26;;;;;;;2.35;0.50;;;;;;;11.25;87.08;99206.91;5054090;28;20056;-81
2020/12/22 12:03:52;;;;;;;0.45;0.40;;;;;;;11.19;87.41;99203.03;5054125;28;20057;-81
2020/12/22 12:06:19;;;;;;;5.93;0.60;;;;;;;11.33;86.83;99218.50;5053603;28;20464;-81
2020/12/22 12:08:45;;;;;;;2.17;0.47;;;;;;;11.32;87.32;99208.69;5053574;28;20473;-81
2020/12/22 12:11:11;;;;;;;2.50;0.50;;;;;;;11.39;86.15;99230.53;5053514;28;20471;-81
2020/12/22 12:13:38;;;;;;;1.00;0.57;;;;;;;11.32;87.08;99221.41;5054024;28;20057;-81
2020/12/22 12:16:05;;;;;;;5.07;1.30;;;;;;;11.39;87.02;99225.09;5054092;28;20064;-81
2020/12/22 12:18:31;;;;;;;3.28;1.65;;;;;;;11.36;87.19;99225.47;5053333;28;20094;-81
2020/12/22 12:20:58;;;;;;;3.35;1.30;;;;;;;11.35;86.76;99215.63;5053619;28;20041;-81